Time;durP1;ratioP1;P1;durP2;ratioP2;P2;SDS_P1;SDS_P2;PMS_P1;PMS_P2;Temp;Humidity;BMP_temperature;BMP_pressure;BME280_temperature;BME280_humidity;BME280_pressure;Samples;Min_cycle;Max_cycle;Signal;HPM_P1;HPM_P2
2023/08/25 00:00:51;;;;;;;56.47;2.03;;;;;;;;;;5052527;28;20448;-69
2023/08/25 00:03:19;;;;;;;56.63;2.47;;;;;;;;;;5052101;28;20490;-69
2023/08/25 00:05:46;;;;;;;56.67;2.10;;;;;;;;;;5052345;28;20527;-69
2023/08/25 00:08:13;;;;;;;56.47;2.20;;;;;;;;;;5052424;28;20448;-69
2023/08/25 00:10:40;;;;;;;56.13;2.20;;;;;;;;;;5052199;28;20944;-70
2023/08/25 00:13:07;;;;;;;56.40;2.10;;;;;;;;;;5051972;28;20531;-69
2023/08/25 00:15:34;;;;;;;56.47;2.10;;;;;;;;;;5052259;28;20551;-69
2023/08/25 00:18:05;;;;;;;56.60;2.43;;;;;;;;;;5052012;28;21270;-69
2023/08/25 00:20:32;;;;;;;57.20;2.67;;;;;;;;;;5052170;28;20452;-70
2023/08/25 00:22:59;;;;;;;56.47;2.20;;;;;;;;;;5051765;28;20451;-69
2023/08/25 00:25:26;;;;;;;56.17;2.10;;;;;;;;;;5051907;28;20484;-69
2023/08/25 00:27:53;;;;;;;56.17;2.10;;;;;;;;;;5051876;28;20447;-69
2023/08/25 00:30:20;;;;;;;56.27;2.30;;;;;;;;;;5051742;28;20990;-69
2023/08/25 00:32:48;;;;;;;56.30;2.13;;;;;;;;;;5051487;28;20949;-69
2023/08/25 00:35:16;;;;;;;56.37;2.10;;;;;;;;;;5051825;28;20474;-70
2023/08/25 00:37:43;;;;;;;56.50;2.20;;;;;;;;;;5051510;28;20955;-71
2023/08/25 00:40:11;;;;;;;59.47;2.77;;;;;;;;;;5051792;28;20470;-71
2023/08/25 00:42:38;;;;;;;57.10;2.40;;;;;;;;;;5051348;28;20444;-71
2023/08/25 00:45:05;;;;;;;56.50;2.20;;;;;;;;;;5052031;28;20498;-69
2023/08/25 00:47:33;;;;;;;56.50;2.20;;;;;;;;;;5051292;28;20452;-70
2023/08/25 00:50:00;;;;;;;56.47;2.23;;;;;;;;;;5051514;28;20818;-69
2023/08/25 00:52:29;;;;;;;56.23;2.20;;;;;;;;;;5051199;28;20452;-70
2023/08/25 00:54:57;;;;;;;56.57;2.10;;;;;;;;;;5051320;28;20555;-69
2023/08/25 00:57:24;;;;;;;56.77;2.20;;;;;;;;;;5051189;28;21023;-69
2023/08/25 00:59:51;;;;;;;56.60;2.40;;;;;;;;;;5051340;28;20444;-70
2023/08/25 01:02:19;;;;;;;57.00;2.40;;;;;;;;;;5051175;28;20843;-70
2023/08/25 01:04:46;;;;;;;56.30;2.30;;;;;;;;;;5049789;28;20534;-70
2023/08/25 01:07:13;;;;;;;56.80;2.43;;;;;;;;;;5051199;28;20582;-71
2023/08/25 01:09:42;;;;;;;59.43;3.17;;;;;;;;;;5051312;28;20951;-70
2023/08/25 01:12:12;;;;;;;56.30;2.30;;;;;;;;;;5051019;28;20458;-70
2023/08/25 01:14:44;;;;;;;56.90;2.20;;;;;;;;;;5050929;28;20532;-71
2023/08/25 01:17:14;;;;;;;62.30;2.67;;;;;;;;;;5051070;28;20448;-70
2023/08/25 01:19:56;;;;;;;56.47;2.40;;;;;;;;;;5050898;28;20900;-71
2023/08/25 01:22:26;;;;;;;56.77;2.70;;;;;;;;;;5050890;28;20627;-70
2023/08/25 01:24:59;;;;;;;56.50;2.27;;;;;;;;;;5050885;28;20492;-70
2023/08/25 01:27:28;;;;;;;56.70;2.60;;;;;;;;;;5050888;28;20523;-71
2023/08/25 01:29:55;;;;;;;56.90;2.97;;;;;;;;;;5050883;28;20456;-70
2023/08/25 01:32:22;;;;;;;56.80;2.40;;;;;;;;;;5050983;28;20448;-70
2023/08/25 01:34:49;;;;;;;56.40;2.10;;;;;;;;;;5050955;28;20556;-71
2023/08/25 01:37:19;;;;;;;56.43;2.40;;;;;;;;;;5050910;28;20981;-71
2023/08/25 01:39:48;;;;;;;56.90;2.60;;;;;;;;;;5051081;28;20554;-71
2023/08/25 01:42:16;;;;;;;56.50;2.30;;;;;;;;;;5050547;28;20463;-71
2023/08/25 01:44:45;;;;;;;56.50;2.17;;;;;;;;;;5050609;28;20488;-70
2023/08/25 01:47:13;;;;;;;58.40;5.10;;;;;;;;;;5050697;28;20448;-71
2023/08/25 01:49:41;;;;;;;56.90;2.30;;;;;;;;;;5050774;28;20801;-71
2023/08/25 01:52:12;;;;;;;56.50;2.33;;;;;;;;;;5050356;28;20944;-71
2023/08/25 01:54:39;;;;;;;56.37;2.30;;;;;;;;;;5050747;28;20530;-71
2023/08/25 01:57:07;;;;;;;57.77;2.53;;;;;;;;;;5050623;28;20536;-69
2023/08/25 01:59:34;;;;;;;56.60;2.20;;;;;;;;;;5051123;28;20444;-70
2023/08/25 02:02:02;;;;;;;56.80;2.40;;;;;;;;;;5050369;28;20945;-70
2023/08/25 02:04:29;;;;;;;56.80;2.17;;;;;;;;;;5050491;28;20498;-70
2023/08/25 02:06:56;;;;;;;56.50;2.30;;;;;;;;;;5050403;28;20444;-70
2023/08/25 02:09:24;;;;;;;56.40;2.23;;;;;;;;;;5050619;28;20562;-70
2023/08/25 02:11:51;;;;;;;56.37;2.00;;;;;;;;;;5050047;28;20437;-70
2023/08/25 02:14:18;;;;;;;57.00;2.70;;;;;;;;;;5050316;28;20464;-70
2023/08/25 02:16:45;;;;;;;56.60;2.40;;;;;;;;;;5050422;28;20444;-70
2023/08/25 02:19:13;;;;;;;56.43;2.37;;;;;;;;;;5053781;28;20446;-70
2023/08/25 02:21:41;;;;;;;57.77;3.30;;;;;;;;;;5054159;28;20454;-71
2023/08/25 02:24:08;;;;;;;56.40;2.40;;;;;;;;;;5053993;28;20487;-71
2023/08/25 02:26:35;;;;;;;56.60;2.30;;;;;;;;;;5054405;28;20452;-71
2023/08/25 02:29:02;;;;;;;56.47;2.07;;;;;;;;;;5054373;28;20447;-71
2023/08/25 02:31:29;;;;;;;57.00;2.50;;;;;;;;;;5054210;28;20460;-71
2023/08/25 02:33:56;;;;;;;56.43;2.17;;;;;;;;;;5053832;28;20561;-71
2023/08/25 02:36:24;;;;;;;57.03;2.70;;;;;;;;;;5054029;28;20527;-71
2023/08/25 02:38:52;;;;;;;56.47;2.57;;;;;;;;;;5053882;28;20794;-71
2023/08/25 02:41:19;;;;;;;56.67;2.20;;;;;;;;;;5054069;28;20445;-71
2023/08/25 02:43:47;;;;;;;56.60;2.20;;;;;;;;;;5053786;28;20521;-70
2023/08/25 02:46:14;;;;;;;56.70;2.30;;;;;;;;;;5053743;28;20479;-70
2023/08/25 02:48:41;;;;;;;56.50;2.37;;;;;;;;;;5053808;28;20440;-71
2023/08/25 02:51:08;;;;;;;56.50;2.20;;;;;;;;;;5053708;28;20537;-70
2023/08/25 02:53:37;;;;;;;56.23;2.20;;;;;;;;;;5053563;28;20440;-71
2023/08/25 02:56:04;;;;;;;56.37;2.30;;;;;;;;;;5053845;28;20811;-71
2023/08/25 02:58:31;;;;;;;56.40;2.03;;;;;;;;;;5053765;28;20804;-70
2023/08/25 03:00:58;;;;;;;56.37;2.10;;;;;;;;;;5053640;28;20440;-71
2023/08/25 03:03:26;;;;;;;56.67;2.63;;;;;;;;;;5053241;28;20449;-70
2023/08/25 03:05:53;;;;;;;56.23;2.23;;;;;;;;;;5053217;28;20571;-70
2023/08/25 03:08:22;;;;;;;56.90;2.70;;;;;;;;;;5053478;28;20547;-71
2023/08/25 03:10:52;;;;;;;56.50;2.43;;;;;;;;;;5053745;28;20452;-70
2023/08/25 03:13:19;;;;;;;56.40;2.20;;;;;;;;;;5053422;28;20490;-70
2023/08/25 03:15:48;;;;;;;56.57;2.47;;;;;;;;;;5053149;28;20980;-70
2023/08/25 03:18:15;;;;;;;56.37;2.10;;;;;;;;;;5053305;28;20467;-70
2023/08/25 03:20:42;;;;;;;57.10;2.53;;;;;;;;;;5053352;28;20455;-69
2023/08/25 03:23:09;;;;;;;56.50;2.40;;;;;;;;;;5053052;28;20451;-70
2023/08/25 03:25:38;;;;;;;62.10;2.40;;;;;;;;;;5053156;28;20518;-71
2023/08/25 03:28:07;;;;;;;56.40;2.03;;;;;;;;;;5052958;28;20444;-70
2023/08/25 03:30:34;;;;;;;57.20;2.87;;;;;;;;;;5052960;28;20444;-70
2023/08/25 03:33:03;;;;;;;56.67;2.00;;;;;;;;;;5052871;28;20554;-70
2023/08/25 03:35:33;;;;;;;56.70;2.10;;;;;;;;;;5053035;28;20511;-70
2023/08/25 03:38:00;;;;;;;56.53;2.10;;;;;;;;;;5057499;28;20460;-72
2023/08/25 03:40:28;;;;;;;56.50;2.40;;;;;;;;;;5062249;28;20512;-70
2023/08/25 03:42:55;;;;;;;56.70;2.30;;;;;;;;;;5061456;28;20444;-71
2023/08/25 03:45:23;;;;;;;56.47;2.30;;;;;;;;;;5061498;28;20496;-71
2023/08/25 03:47:51;;;;;;;57.30;3.80;;;;;;;;;;5061986;28;20520;-71
2023/08/25 03:50:18;;;;;;;56.67;2.17;;;;;;;;;;5061699;28;20543;-70
2023/08/25 03:52:48;;;;;;;56.43;2.17;;;;;;;;;;5060696;28;20535;-72
2023/08/25 03:55:15;;;;;;;56.40;2.20;;;;;;;;;;5061693;28;20522;-70
2023/08/25 03:57:42;;;;;;;56.60;2.30;;;;;;;;;;5061530;28;20498;-71
2023/08/25 04:00:09;;;;;;;57.00;2.30;;;;;;;;;;5061382;28;20543;-70
2023/08/25 04:02:39;;;;;;;56.13;2.10;;;;;;;;;;5061057;28;20527;-70
2023/08/25 04:05:07;;;;;;;57.00;2.20;;;;;;;;;;5061382;28;20494;-70
2023/08/25 04:07:34;;;;;;;56.60;2.37;;;;;;;;;;5060516;28;20455;-71
2023/08/25 04:10:01;;;;;;;56.57;2.10;;;;;;;;;;5060764;28;20543;-70
2023/08/25 04:12:28;;;;;;;57.10;2.53;;;;;;;;;;5061286;28;20459;-71
2023/08/25 04:14:55;;;;;;;56.53;2.40;;;;;;;;;;5061104;28;20470;-70
2023/08/25 04:17:22;;;;;;;57.20;2.30;;;;;;;;;;5060735;28;20855;-71
2023/08/25 04:19:51;;;;;;;56.77;2.37;;;;;;;;;;5061020;28;20507;-70
2023/08/25 04:22:18;;;;;;;56.77;2.70;;;;;;;;;;5059831;28;20444;-72
2023/08/25 04:24:45;;;;;;;56.80;2.20;;;;;;;;;;5061146;28;20509;-71
2023/08/25 04:27:12;;;;;;;56.77;2.40;;;;;;;;;;5060642;28;20539;-71
2023/08/25 04:29:39;;;;;;;56.77;2.30;;;;;;;;;;5060899;28;20440;-70
2023/08/25 04:32:07;;;;;;;57.47;3.20;;;;;;;;;;5060930;28;20928;-71
2023/08/25 04:34:34;;;;;;;56.57;2.40;;;;;;;;;;5061330;28;20468;-70
2023/08/25 04:37:02;;;;;;;56.37;2.40;;;;;;;;;;5060694;28;20448;-71
2023/08/25 04:39:30;;;;;;;56.53;2.20;;;;;;;;;;5062017;28;20441;-71
2023/08/25 04:41:57;;;;;;;56.80;2.80;;;;;;;;;;5059925;28;20829;-71
2023/08/25 04:44:24;;;;;;;56.97;2.73;;;;;;;;;;5061651;28;20482;-70
2023/08/25 04:46:51;;;;;;;57.40;3.33;;;;;;;;;;5060246;28;20484;-70
2023/08/25 04:49:18;;;;;;;56.87;2.70;;;;;;;;;;5061040;28;20451;-69
2023/08/25 04:51:45;;;;;;;56.63;2.57;;;;;;;;;;5057397;28;20973;-70
2023/08/25 04:54:13;;;;;;;57.10;2.83;;;;;;;;;;5052630;28;20847;-71
2023/08/25 04:56:40;;;;;;;56.67;2.37;;;;;;;;;;5054120;28;20463;-72
2023/08/25 04:59:08;;;;;;;57.10;2.50;;;;;;;;;;5052082;28;20440;-72
2023/08/25 05:01:35;;;;;;;56.90;2.50;;;;;;;;;;5051722;28;20444;-72
2023/08/25 05:04:02;;;;;;;56.60;2.87;;;;;;;;;;5051538;28;20460;-72
2023/08/25 05:06:29;;;;;;;56.80;2.30;;;;;;;;;;5051330;28;20534;-69
2023/08/25 05:08:56;;;;;;;56.60;2.57;;;;;;;;;;5051360;28;20440;-70
2023/08/25 05:11:25;;;;;;;56.40;2.40;;;;;;;;;;5051695;28;20541;-71
2023/08/25 05:13:52;;;;;;;56.63;2.47;;;;;;;;;;5051278;28;20824;-70
2023/08/25 05:16:19;;;;;;;57.97;4.80;;;;;;;;;;5051474;28;20448;-71
2023/08/25 05:18:46;;;;;;;56.90;2.60;;;;;;;;;;5051709;28;20440;-70
2023/08/25 05:21:15;;;;;;;56.67;2.50;;;;;;;;;;5051048;28;20448;-71
2023/08/25 05:23:46;;;;;;;56.67;2.40;;;;;;;;;;5050852;28;20464;-71
2023/08/25 05:26:13;;;;;;;56.93;2.80;;;;;;;;;;5051062;28;21050;-70
2023/08/25 05:28:41;;;;;;;56.50;2.30;;;;;;;;;;5050984;28;20445;-71
2023/08/25 05:31:09;;;;;;;57.07;2.50;;;;;;;;;;5051025;28;20470;-70
2023/08/25 05:33:36;;;;;;;56.43;2.60;;;;;;;;;;5050754;28;20471;-71
2023/08/25 05:36:04;;;;;;;56.33;2.30;;;;;;;;;;5051989;28;20573;-72
2023/08/25 05:38:31;;;;;;;56.27;2.07;;;;;;;;;;5051037;28;20535;-71
2023/08/25 05:40:58;;;;;;;56.47;2.30;;;;;;;;;;5051216;28;20451;-71
2023/08/25 05:43:25;;;;;;;56.07;2.20;;;;;;;;;;5050658;28;20448;-70
2023/08/25 05:45:54;;;;;;;56.60;2.60;;;;;;;;;;5050956;28;20484;-70
2023/08/25 05:48:21;;;;;;;56.30;2.13;;;;;;;;;;5050734;28;20519;-71
2023/08/25 05:50:48;;;;;;;56.97;2.73;;;;;;;;;;5051102;28;20966;-70
2023/08/25 05:53:15;;;;;;;56.60;2.73;;;;;;;;;;5054548;28;20459;-70
2023/08/25 05:55:42;;;;;;;56.37;2.10;;;;;;;;;;5054756;28;20466;-70
2023/08/25 05:58:11;;;;;;;56.30;2.37;;;;;;;;;;5054988;28;20874;-71
2023/08/25 06:00:38;;;;;;;56.40;2.37;;;;;;;;;;5054656;28;20451;-70
2023/08/25 06:03:08;;;;;;;55.97;2.10;;;;;;;;;;5054311;28;20458;-69
2023/08/25 06:05:35;;;;;;;56.63;2.73;;;;;;;;;;5054726;28;20490;-70
2023/08/25 06:08:02;;;;;;;57.00;2.50;;;;;;;;;;5054541;28;20451;-70
2023/08/25 06:10:29;;;;;;;56.27;2.20;;;;;;;;;;5054496;28;20463;-70
2023/08/25 06:12:56;;;;;;;56.50;2.63;;;;;;;;;;5054167;28;20448;-70
2023/08/25 06:15:23;;;;;;;56.30;2.30;;;;;;;;;;5054460;28;20456;-71
2023/08/25 06:17:50;;;;;;;58.40;3.37;;;;;;;;;;5054434;28;20942;-70
2023/08/25 06:20:21;;;;;;;57.33;3.00;;;;;;;;;;5054565;28;20443;-70
2023/08/25 06:22:48;;;;;;;56.17;2.00;;;;;;;;;;5054002;28;20451;-70
2023/08/25 06:25:16;;;;;;;56.27;2.33;;;;;;;;;;5054120;28;20475;-70
2023/08/25 06:27:43;;;;;;;56.07;2.30;;;;;;;;;;5054173;28;20644;-70
2023/08/25 06:30:10;;;;;;;56.40;2.53;;;;;;;;;;5054077;28;20448;-70
2023/08/25 06:32:37;;;;;;;56.50;2.47;;;;;;;;;;5054042;28;20494;-70
2023/08/25 06:35:05;;;;;;;56.80;2.30;;;;;;;;;;5054033;28;20466;-70
2023/08/25 06:37:33;;;;;;;56.27;2.57;;;;;;;;;;5053831;28;20555;-70
2023/08/25 06:40:01;;;;;;;58.10;2.70;;;;;;;;;;5053890;28;20447;-70
2023/08/25 06:42:28;;;;;;;56.47;2.30;;;;;;;;;;5053535;28;20971;-70
2023/08/25 06:44:55;;;;;;;56.60;2.07;;;;;;;;;;5053904;28;20476;-71
2023/08/25 06:47:22;;;;;;;56.70;2.40;;;;;;;;;;5053760;28;20491;-71
2023/08/25 06:49:49;;;;;;;57.00;2.43;;;;;;;;;;5053857;28;20440;-70
2023/08/25 06:52:16;;;;;;;56.40;2.43;;;;;;;;;;5053496;28;20448;-70
2023/08/25 06:54:44;;;;;;;56.87;2.93;;;;;;;;;;5053652;28;20471;-71
2023/08/25 06:57:11;;;;;;;57.13;2.40;;;;;;;;;;5053384;28;20440;-71
2023/08/25 06:59:38;;;;;;;56.80;2.50;;;;;;;;;;5053859;28;20445;-71
2023/08/25 07:02:06;;;;;;;58.17;2.50;;;;;;;;;;5053514;28;20649;-70
2023/08/25 07:04:33;;;;;;;56.90;2.60;;;;;;;;;;5053279;28;20456;-71
2023/08/25 07:07:00;;;;;;;56.97;2.50;;;;;;;;;;5053437;28;20483;-70
2023/08/25 07:09:27;;;;;;;56.60;2.70;;;;;;;;;;5053531;28;20451;-70
2023/08/25 07:11:55;;;;;;;56.70;2.63;;;;;;;;;;5053388;28;20437;-70
2023/08/25 07:14:22;;;;;;;56.60;2.37;;;;;;;;;;5053454;28;20468;-71
2023/08/25 07:16:49;;;;;;;57.03;3.07;;;;;;;;;;5053378;28;20467;-70
2023/08/25 07:19:17;;;;;;;56.70;2.40;;;;;;;;;;5053438;28;20444;-71
2023/08/25 07:21:44;;;;;;;57.20;2.80;;;;;;;;;;5053197;28;20502;-71
2023/08/25 07:24:11;;;;;;;56.67;2.77;;;;;;;;;;5053522;28;20490;-71
2023/08/25 07:26:38;;;;;;;56.83;2.67;;;;;;;;;;5053191;28;20582;-69
2023/08/25 07:29:08;;;;;;;56.47;2.40;;;;;;;;;;5053634;28;20459;-70
2023/08/25 07:31:35;;;;;;;56.80;2.57;;;;;;;;;;5053123;28;20456;-70
2023/08/25 07:34:02;;;;;;;56.60;2.37;;;;;;;;;;5053108;28;20465;-70
2023/08/25 07:36:30;;;;;;;57.53;3.13;;;;;;;;;;5052956;28;20476;-70
2023/08/25 07:38:57;;;;;;;56.23;2.20;;;;;;;;;;5053125;28;20441;-71
2023/08/25 07:41:24;;;;;;;56.50;2.30;;;;;;;;;;5052854;28;20819;-70
2023/08/25 07:43:51;;;;;;;56.50;2.40;;;;;;;;;;5052943;28;20492;-71
2023/08/25 07:46:19;;;;;;;56.60;2.40;;;;;;;;;;5052869;28;20487;-70
2023/08/25 07:48:47;;;;;;;56.97;2.93;;;;;;;;;;5052676;28;20659;-70
2023/08/25 07:51:14;;;;;;;56.60;2.47;;;;;;;;;;5053193;28;20811;-70
2023/08/25 07:53:41;;;;;;;56.50;2.30;;;;;;;;;;5052579;28;20448;-70
2023/08/25 07:56:08;;;;;;;56.37;2.27;;;;;;;;;;5052451;28;20440;-70
2023/08/25 07:58:35;;;;;;;56.60;2.60;;;;;;;;;;5052719;28;20444;-70
2023/08/25 08:01:03;;;;;;;56.60;2.30;;;;;;;;;;5052606;28;20444;-69
2023/08/25 08:03:31;;;;;;;56.90;2.60;;;;;;;;;;5052184;28;20541;-70
2023/08/25 08:05:59;;;;;;;57.10;2.77;;;;;;;;;;5052314;28;20480;-70
2023/08/25 08:08:26;;;;;;;56.77;2.73;;;;;;;;;;5052445;28;20444;-71
2023/08/25 08:10:53;;;;;;;56.67;2.30;;;;;;;;;;5052572;28;20456;-70
2023/08/25 08:13:20;;;;;;;56.67;2.30;;;;;;;;;;5052126;28;20535;-70
2023/08/25 08:15:47;;;;;;;57.10;2.73;;;;;;;;;;5051128;28;20486;-70
2023/08/25 08:18:15;;;;;;;57.50;2.80;;;;;;;;;;5052098;28;20545;-70
2023/08/25 08:20:43;;;;;;;57.17;2.97;;;;;;;;;;5052583;28;20455;-71
2023/08/25 08:23:11;;;;;;;56.90;2.93;;;;;;;;;;5052082;28;20453;-71
2023/08/25 08:25:38;;;;;;;57.30;3.17;;;;;;;;;;5052111;28;20588;-71
2023/08/25 08:28:06;;;;;;;56.50;2.50;;;;;;;;;;5052002;28;20952;-70
2023/08/25 08:30:33;;;;;;;56.60;2.17;;;;;;;;;;5051920;28;20971;-70
2023/08/25 08:33:00;;;;;;;56.17;2.03;;;;;;;;;;5051674;28;20952;-71
2023/08/25 08:35:27;;;;;;;56.60;2.30;;;;;;;;;;5052018;28;20472;-70
2023/08/25 08:37:56;;;;;;;56.70;2.67;;;;;;;;;;5051939;28;20476;-71
2023/08/25 08:40:23;;;;;;;56.30;2.07;;;;;;;;;;5051934;28;20445;-71
2023/08/25 08:42:51;;;;;;;56.63;2.17;;;;;;;;;;5051647;28;20450;-71
2023/08/25 08:45:18;;;;;;;56.40;2.40;;;;;;;;;;5051572;28;20475;-71
2023/08/25 08:47:46;;;;;;;56.50;2.10;;;;;;;;;;5051931;28;20894;-70
2023/08/25 08:50:13;;;;;;;56.37;2.33;;;;;;;;;;5051856;28;20448;-70
2023/08/25 08:52:40;;;;;;;56.17;2.00;;;;;;;;;;5051447;28;20444;-70
2023/08/25 08:55:09;;;;;;;57.17;2.67;;;;;;;;;;5051642;28;20468;-71
2023/08/25 08:57:36;;;;;;;56.17;2.23;;;;;;;;;;5051509;28;20443;-71
2023/08/25 09:00:07;;;;;;;56.50;2.30;;;;;;;;;;5051614;28;20886;-71
2023/08/25 09:02:35;;;;;;;56.60;2.20;;;;;;;;;;5051445;28;20453;-70
2023/08/25 09:05:03;;;;;;;56.13;2.10;;;;;;;;;;5051488;28;20468;-71
2023/08/25 09:07:32;;;;;;;56.47;2.27;;;;;;;;;;5051116;28;20480;-71
2023/08/25 09:09:59;;;;;;;56.60;2.40;;;;;;;;;;5051370;28;20447;-70
2023/08/25 09:12:29;;;;;;;56.70;2.20;;;;;;;;;;5051138;28;20446;-71
2023/08/25 09:14:56;;;;;;;57.70;2.53;;;;;;;;;;5051146;28;20468;-71
2023/08/25 09:17:23;;;;;;;61.07;2.80;;;;;;;;;;5051060;28;20959;-71
2023/08/25 09:19:50;;;;;;;56.37;2.07;;;;;;;;;;5051098;28;20944;-70
2023/08/25 09:22:19;;;;;;;55.97;2.10;;;;;;;;;;5050912;28;20540;-70
2023/08/25 09:24:46;;;;;;;56.40;2.40;;;;;;;;;;5051054;28;20460;-70
2023/08/25 09:27:24;;;;;;;56.60;2.50;;;;;;;;;;5050649;28;20662;-70
2023/08/25 09:30:00;;;;;;;56.80;2.47;;;;;;;;;;5051005;28;21001;-70
2023/08/25 09:32:28;;;;;;;56.70;2.67;;;;;;;;;;5050971;28;20484;-70
2023/08/25 09:34:55;;;;;;;58.30;4.40;;;;;;;;;;5050926;28;20472;-70
2023/08/25 09:37:23;;;;;;;57.80;4.73;;;;;;;;;;5050858;28;20498;-70
2023/08/25 09:39:50;;;;;;;56.87;2.40;;;;;;;;;;5051031;28;20827;-71
2023/08/25 09:42:20;;;;;;;56.30;2.40;;;;;;;;;;5050869;28;20440;-69
2023/08/25 09:44:47;;;;;;;56.40;2.20;;;;;;;;;;5050964;28;20473;-70
2023/08/25 09:47:15;;;;;;;56.33;2.33;;;;;;;;;;5050846;28;20495;-70
2023/08/25 09:49:43;;;;;;;56.70;2.70;;;;;;;;;;5050824;28;20451;-68
2023/08/25 09:52:11;;;;;;;56.27;2.20;;;;;;;;;;5050560;28;20444;-69
2023/08/25 09:54:38;;;;;;;55.90;2.60;;;;;;;;;;5050997;28;20893;-70
2023/08/25 09:57:05;;;;;;;56.60;2.50;;;;;;;;;;5050840;28;20456;-69
2023/08/25 09:59:32;;;;;;;56.50;2.20;;;;;;;;;;5050667;28;20821;-69
2023/08/25 10:02:00;;;;;;;56.40;2.20;;;;;;;;;;5050549;28;20448;-69
2023/08/25 10:04:28;;;;;;;56.40;2.43;;;;;;;;;;5050502;28;20464;-67
2023/08/25 10:06:56;;;;;;;56.47;2.30;;;;;;;;;;5050752;28;20492;-68
2023/08/25 10:09:24;;;;;;;56.90;2.70;;;;;;;;;;5050683;28;20562;-69
2023/08/25 10:11:52;;;;;;;56.17;1.97;;;;;;;;;;5050349;28;20448;-69
2023/08/25 10:14:26;;;;;;;56.33;2.30;;;;;;;;;;5050446;28;20475;-68
2023/08/25 10:16:53;;;;;;;57.67;3.03;;;;;;;;;;5050290;28;20455;-68
2023/08/25 10:19:23;;;;;;;56.57;2.40;;;;;;;;;;5050328;28;21364;-68
2023/08/25 10:21:52;;;;;;;56.30;2.07;;;;;;;;;;5050262;28;20456;-70
2023/08/25 10:24:20;;;;;;;56.37;2.10;;;;;;;;;;5050545;28;20460;-70
2023/08/25 10:26:48;;;;;;;56.50;2.20;;;;;;;;;;5050191;28;20526;-69
2023/08/25 10:29:17;;;;;;;57.27;2.97;;;;;;;;;;5050396;28;20480;-68
2023/08/25 10:31:47;;;;;;;56.40;2.40;;;;;;;;;;5050108;28;20813;-69
2023/08/25 10:34:30;;;;;;;56.27;2.40;;;;;;;;;;5050318;28;20498;-68
2023/08/25 10:37:05;;;;;;;56.93;2.57;;;;;;;;;;5050004;28;20452;-69
2023/08/25 10:39:50;;;;;;;56.27;2.20;;;;;;;;;;5052380;28;21010;-68
2023/08/25 10:42:22;;;;;;;56.43;2.60;;;;;;;;;;5053944;28;20444;-68
2023/08/25 10:44:54;;;;;;;55.93;2.20;;;;;;;;;;5053977;28;20483;-69
2023/08/25 10:47:22;;;;;;;56.47;2.37;;;;;;;;;;5053761;28;20480;-68
2023/08/25 10:49:53;;;;;;;57.13;2.50;;;;;;;;;;5053792;28;20446;-68
2023/08/25 10:52:22;;;;;;;56.40;2.30;;;;;;;;;;5053330;28;20468;-69
2023/08/25 10:54:51;;;;;;;56.60;2.27;;;;;;;;;;5053723;28;20470;-69
2023/08/25 10:57:19;;;;;;;56.60;2.47;;;;;;;;;;5053719;28;20490;-69
2023/08/25 10:59:50;;;;;;;56.70;2.90;;;;;;;;;;5054063;28;20444;-68
2023/08/25 11:02:34;;;;;;;56.87;2.37;;;;;;;;;;5053196;28;21058;-69
2023/08/25 11:05:20;;;;;;;56.37;2.20;;;;;;;;;;5053303;28;20928;-69
2023/08/25 11:07:48;;;;;;;56.60;2.43;;;;;;;;;;5053236;28;20483;-69
2023/08/25 11:10:15;;;;;;;56.23;2.20;;;;;;;;;;5053467;28;20440;-67
2023/08/25 11:12:43;;;;;;;55.67;1.77;;;;;;;;;;5053043;28;20440;-68
2023/08/25 11:15:10;;;;;;;56.97;2.43;;;;;;;;;;5053077;28;20470;-68
2023/08/25 11:17:37;;;;;;;56.33;2.27;;;;;;;;;;5052933;28;20444;-67
2023/08/25 11:20:05;;;;;;;55.97;1.83;;;;;;;;;;5053194;28;20816;-68
2023/08/25 11:22:32;;;;;;;56.27;2.30;;;;;;;;;;5052965;28;20440;-68
2023/08/25 11:25:01;;;;;;;56.90;1.90;;;;;;;;;;5052949;28;20986;-68
2023/08/25 11:27:28;;;;;;;56.30;1.70;;;;;;;;;;5052866;28;20602;-67
2023/08/25 11:30:08;;;;;;;56.20;1.90;;;;;;;;;;5052889;28;20480;-68
2023/08/25 11:32:35;;;;;;;57.27;2.40;;;;;;;;;;5052888;28;20447;-68
2023/08/25 11:35:04;;;;;;;58.03;3.13;;;;;;;;;;5052714;28;20563;-68
2023/08/25 11:37:31;;;;;;;56.80;2.40;;;;;;;;;;5052849;28;20455;-68
2023/08/25 11:39:58;;;;;;;56.50;2.13;;;;;;;;;;5052675;28;20448;-67
2023/08/25 11:42:26;;;;;;;56.40;2.10;;;;;;;;;;5052319;28;20491;-68
2023/08/25 11:44:53;;;;;;;55.87;2.00;;;;;;;;;;5052779;28;20468;-68
2023/08/25 11:47:21;;;;;;;56.23;2.13;;;;;;;;;;5052435;28;20579;-68
2023/08/25 11:49:49;;;;;;;56.83;2.30;;;;;;;;;;5052460;28;20448;-69
2023/08/25 11:52:17;;;;;;;56.37;2.10;;;;;;;;;;5052167;28;20456;-68
2023/08/25 11:54:47;;;;;;;56.60;2.20;;;;;;;;;;5052556;28;20464;-68
2023/08/25 11:57:14;;;;;;;56.07;2.03;;;;;;;;;;5052287;28;20436;-68
2023/08/25 11:59:43;;;;;;;56.60;2.10;;;;;;;;;;5052316;28;20566;-68
2023/08/25 12:02:15;;;;;;;57.23;2.53;;;;;;;;;;5052255;28;20517;-68
2023/08/25 12:04:52;;;;;;;56.50;2.13;;;;;;;;;;5052273;28;20469;-68
2023/08/25 12:07:22;;;;;;;56.00;2.00;;;;;;;;;;5052120;28;20863;-67
2023/08/25 12:09:54;;;;;;;56.27;2.20;;;;;;;;;;5052104;28;20441;-66
2023/08/25 12:12:21;;;;;;;56.00;1.80;;;;;;;;;;5052122;28;20445;-68
2023/08/25 12:14:51;;;;;;;56.77;2.53;;;;;;;;;;5052262;28;20468;-67
2023/08/25 12:17:22;;;;;;;56.10;2.00;;;;;;;;;;5052099;28;20436;-67
2023/08/25 12:19:49;;;;;;;56.30;2.10;;;;;;;;;;5051920;28;20494;-66
2023/08/25 12:22:16;;;;;;;56.67;2.60;;;;;;;;;;5051790;28;20444;-67
2023/08/25 12:24:43;;;;;;;56.00;2.07;;;;;;;;;;5051914;28;20471;-67
2023/08/25 12:27:10;;;;;;;56.30;1.87;;;;;;;;;;5051958;28;20444;-67
2023/08/25 12:29:38;;;;;;;56.10;1.90;;;;;;;;;;5051892;28;20936;-67
2023/08/25 12:32:07;;;;;;;56.20;2.27;;;;;;;;;;5051569;28;20455;-69
2023/08/25 12:34:34;;;;;;;56.80;3.03;;;;;;;;;;5051547;28;20509;-68
2023/08/25 12:37:03;;;;;;;57.13;2.33;;;;;;;;;;5051521;28;20912;-68
2023/08/25 12:39:30;;;;;;;55.97;1.80;;;;;;;;;;5051812;28;20444;-69
2023/08/25 12:41:57;;;;;;;56.27;2.00;;;;;;;;;;5051498;28;20448;-68
2023/08/25 12:44:24;;;;;;;55.77;1.90;;;;;;;;;;5051463;28;20465;-69
2023/08/25 12:46:51;;;;;;;55.57;2.00;;;;;;;;;;5051409;28;20440;-69
2023/08/25 12:49:20;;;;;;;56.00;1.90;;;;;;;;;;5051567;28;20487;-69
2023/08/25 12:51:47;;;;;;;55.97;1.70;;;;;;;;;;5051366;28;20482;-69
2023/08/25 12:54:16;;;;;;;56.27;2.30;;;;;;;;;;5051464;28;20836;-69
2023/08/25 12:56:43;;;;;;;56.50;2.30;;;;;;;;;;5051189;28;20526;-69
2023/08/25 12:59:10;;;;;;;56.40;1.90;;;;;;;;;;5051325;28;20440;-69
2023/08/25 13:01:37;;;;;;;56.60;2.67;;;;;;;;;;5050564;28;20459;-69
2023/08/25 13:04:05;;;;;;;56.00;2.70;;;;;;;;;;5051279;28;20460;-69
2023/08/25 13:06:33;;;;;;;56.17;2.30;;;;;;;;;;5051209;28;20524;-68
2023/08/25 13:09:00;;;;;;;55.97;2.00;;;;;;;;;;5051250;28;20510;-69
2023/08/25 13:11:27;;;;;;;56.20;2.30;;;;;;;;;;5051099;28;20448;-69
2023/08/25 13:13:54;;;;;;;56.27;2.53;;;;;;;;;;5050723;28;20983;-69
2023/08/25 13:16:22;;;;;;;56.30;2.57;;;;;;;;;;5050737;28;20448;-70
2023/08/25 13:18:49;;;;;;;56.93;2.27;;;;;;;;;;5051171;28;20444;-67
2023/08/25 13:21:16;;;;;;;57.70;3.30;;;;;;;;;;5050945;28;20459;-68
2023/08/25 13:23:44;;;;;;;56.47;2.50;;;;;;;;;;5050706;28;20448;-68
2023/08/25 13:26:11;;;;;;;55.97;2.07;;;;;;;;;;5050843;28;20444;-69
2023/08/25 13:28:39;;;;;;;56.50;2.20;;;;;;;;;;5050650;28;21030;-68
2023/08/25 13:31:07;;;;;;;56.17;2.20;;;;;;;;;;5051054;28;20452;-70
2023/08/25 13:33:34;;;;;;;56.47;2.30;;;;;;;;;;5050718;28;20455;-69
2023/08/25 13:36:01;;;;;;;56.33;2.53;;;;;;;;;;5050690;28;20543;-70
2023/08/25 13:38:28;;;;;;;57.17;2.40;;;;;;;;;;5050554;28;20875;-68
2023/08/25 13:40:57;;;;;;;56.43;2.37;;;;;;;;;;5050943;28;20440;-69
2023/08/25 13:43:24;;;;;;;56.17;2.20;;;;;;;;;;5050420;28;20945;-69
2023/08/25 13:45:51;;;;;;;56.23;2.30;;;;;;;;;;5050773;28;20463;-69
2023/08/25 13:48:18;;;;;;;57.37;2.20;;;;;;;;;;5050545;28;20598;-69
2023/08/25 13:50:46;;;;;;;55.93;1.70;;;;;;;;;;5050745;28;20845;-68
2023/08/25 13:53:13;;;;;;;56.50;1.93;;;;;;;;;;5050476;28;20452;-69
2023/08/25 13:55:41;;;;;;;55.90;2.00;;;;;;;;;;5050388;28;20468;-70
2023/08/25 13:58:09;;;;;;;56.30;1.90;;;;;;;;;;5050551;28;20454;-69
2023/08/25 14:00:37;;;;;;;56.77;3.77;;;;;;;;;;5050645;28;21104;-69
2023/08/25 14:03:05;;;;;;;57.90;3.03;;;;;;;;;;5050444;28;20557;-69
2023/08/25 14:05:32;;;;;;;55.60;2.13;;;;;;;;;;5050513;28;20468;-68
2023/08/25 14:07:59;;;;;;;56.40;2.20;;;;;;;;;;5050461;28;21008;-68
2023/08/25 14:10:27;;;;;;;55.90;1.80;;;;;;;;;;5050584;28;21101;-69
2023/08/25 14:12:54;;;;;;;56.03;2.27;;;;;;;;;;5050564;28;20496;-68
2023/08/25 14:15:22;;;;;;;56.50;2.13;;;;;;;;;;5054023;28;20464;-68
2023/08/25 14:17:50;;;;;;;56.20;2.20;;;;;;;;;;5054265;28;20944;-69
2023/08/25 14:20:17;;;;;;;56.50;2.00;;;;;;;;;;5054391;28;20451;-69
2023/08/25 14:22:44;;;;;;;56.30;2.50;;;;;;;;;;5054045;28;20451;-70
2023/08/25 14:25:11;;;;;;;56.80;2.53;;;;;;;;;;5054155;28;20468;-69
2023/08/25 14:27:38;;;;;;;56.07;1.70;;;;;;;;;;5054275;28;20454;-69
2023/08/25 14:30:06;;;;;;;56.90;2.17;;;;;;;;;;5054357;28;20448;-69
2023/08/25 14:32:35;;;;;;;56.60;2.20;;;;;;;;;;5053892;28;20452;-69
2023/08/25 14:35:03;;;;;;;56.97;2.43;;;;;;;;;;5054214;28;20549;-69